sensor_id;sensor_type;location;lat;lon;timestamp;pressure;altitude;pressure_sealevel;temperature;humidity
72525;BME280;60547;48.502;8.996;2023-04-23T00:01:17;97286.69;;;12.49;74.56
72525;BME280;60547;48.502;8.996;2023-04-23T00:03:43;97285.16;;;12.48;73.81
72525;BME280;60547;48.502;8.996;2023-04-23T00:06:09;97287.94;;;12.39;74.10
72525;BME280;60547;48.502;8.996;2023-04-23T00:08:41;97287.16;;;12.38;74.28
72525;BME280;60547;48.502;8.996;2023-04-23T00:11:08;97298.16;;;12.51;74.22
72525;BME280;60547;48.502;8.996;2023-04-23T00:13:34;97292.44;;;12.45;74.39
72525;BME280;60547;48.502;8.996;2023-04-23T00:16:00;97302.34;;;12.46;74.18
72525;BME280;60547;48.502;8.996;2023-04-23T00:18:26;97283.28;;;12.36;74.95
72525;BME280;60547;48.502;8.996;2023-04-23T00:20:51;97295.06;;;12.40;74.50
72525;BME280;60547;48.502;8.996;2023-04-23T00:23:17;97295.06;;;12.40;74.17
72525;BME280;60547;48.502;8.996;2023-04-23T00:25:42;97290.56;;;12.33;74.07
72525;BME280;60547;48.502;8.996;2023-04-23T00:28:08;97277.06;;;12.32;73.96
72525;BME280;60547;48.502;8.996;2023-04-23T00:30:33;97291.81;;;12.41;74.31
72525;BME280;60547;48.502;8.996;2023-04-23T00:32:59;97287.16;;;12.38;74.39
72525;BME280;60547;48.502;8.996;2023-04-23T00:35:24;97306.06;;;12.52;74.12
72525;BME280;60547;48.502;8.996;2023-04-23T00:37:50;97310.56;;;12.50;74.74
72525;BME280;60547;48.502;8.996;2023-04-23T00:40:15;97300.34;;;12.47;75.21
72525;BME280;60547;48.502;8.996;2023-04-23T00:42:41;97302.19;;;12.41;76.04
72525;BME280;60547;48.502;8.996;2023-04-23T00:45:07;97282.47;;;12.17;77.27
72525;BME280;60547;48.502;8.996;2023-04-23T00:47:33;97309.63;;;12.35;77.58
72525;BME280;60547;48.502;8.996;2023-04-23T00:50:01;97297.38;;;12.23;78.82
72525;BME280;60547;48.502;8.996;2023-04-23T00:52:27;97309.75;;;12.22;80.10
72525;BME280;60547;48.502;8.996;2023-04-23T00:54:53;97308.22;;;12.21;80.45
72525;BME280;60547;48.502;8.996;2023-04-23T00:57:20;97314.84;;;12.14;81.07
72525;BME280;60547;48.502;8.996;2023-04-23T00:59:46;97311.72;;;12.03;81.09
72525;BME280;60547;48.502;8.996;2023-04-23T01:02:13;97319.19;;;12.06;82.17
72525;BME280;60547;48.502;8.996;2023-04-23T01:04:40;97319.00;;;12.01;82.07
72525;BME280;60547;48.502;8.996;2023-04-23T01:07:08;97329.09;;;12.07;82.05
72525;BME280;60547;48.502;8.996;2023-04-23T01:09:34;97320.56;;;12.02;82.44
72525;BME280;60547;48.502;8.996;2023-04-23T01:12:00;97316.81;;;11.95;82.63
72525;BME280;60547;48.502;8.996;2023-04-23T01:14:26;97327.97;;;11.95;82.96
72525;BME280;60547;48.502;8.996;2023-04-23T01:16:52;97319.59;;;11.86;83.52
72525;BME280;60547;48.502;8.996;2023-04-23T01:19:18;97309.75;;;11.73;83.76
72525;BME280;60547;48.502;8.996;2023-04-23T01:21:44;97311.97;;;11.78;83.95
72525;BME280;60547;48.502;8.996;2023-04-23T01:24:10;97317.97;;;11.76;83.90
72525;BME280;60547;48.502;8.996;2023-04-23T01:26:36;97332.75;;;11.86;83.29
72525;BME280;60547;48.502;8.996;2023-04-23T01:29:02;97324.09;;;11.93;81.83
72525;BME280;60547;48.502;8.996;2023-04-23T01:31:28;97338.22;;;11.99;81.81
72525;BME280;60547;48.502;8.996;2023-04-23T01:33:55;97329.03;;;11.89;81.53
72525;BME280;60547;48.502;8.996;2023-04-23T01:36:22;97341.00;;;11.99;82.37
72525;BME280;60547;48.502;8.996;2023-04-23T01:38:48;97337.56;;;11.94;82.38
72525;BME280;60547;48.502;8.996;2023-04-23T01:41:14;97323.47;;;11.89;81.97
72525;BME280;60547;48.502;8.996;2023-04-23T01:43:43;97344.09;;;12.01;82.45
72525;BME280;60547;48.502;8.996;2023-04-23T01:46:08;97329.69;;;11.93;82.11
72525;BME280;60547;48.502;8.996;2023-04-23T01:48:35;97335.72;;;11.91;82.40
72525;BME280;60547;48.502;8.996;2023-04-23T01:51:01;97349.69;;;12.01;82.71
72525;BME280;60547;48.502;8.996;2023-04-23T01:53:26;97335.09;;;11.96;81.99
72525;BME280;60547;48.502;8.996;2023-04-23T01:55:53;97328.44;;;11.94;82.20
72525;BME280;60547;48.502;8.996;2023-04-23T01:58:19;97354.38;;;12.13;82.49
72525;BME280;60547;48.502;8.996;2023-04-23T02:00:45;97336.97;;;12.00;82.60
72525;BME280;60547;48.502;8.996;2023-04-23T02:03:10;97352.47;;;12.01;83.16
72525;BME280;60547;48.502;8.996;2023-04-23T02:05:40;97348.41;;;11.92;83.37
72525;BME280;60547;48.502;8.996;2023-04-23T02:08:06;97351.19;;;11.92;83.92
72525;BME280;60547;48.502;8.996;2023-04-23T02:10:32;97336.59;;;11.79;84.61
72525;BME280;60547;48.502;8.996;2023-04-23T02:12:58;97342.66;;;11.87;84.76
72525;BME280;60547;48.502;8.996;2023-04-23T02:15:23;97352.25;;;11.86;85.31
72525;BME280;60547;48.502;8.996;2023-04-23T02:17:49;97352.75;;;11.93;85.33
72525;BME280;60547;48.502;8.996;2023-04-23T02:20:18;97364.81;;;11.90;86.37
72525;BME280;60547;48.502;8.996;2023-04-23T02:22:44;97355.50;;;11.84;87.03
72525;BME280;60547;48.502;8.996;2023-04-23T02:25:11;97359.22;;;11.81;87.41
72525;BME280;60547;48.502;8.996;2023-04-23T02:27:40;97350.47;;;11.70;87.62
72525;BME280;60547;48.502;8.996;2023-04-23T02:30:06;97332.31;;;11.65;87.57
72525;BME280;60547;48.502;8.996;2023-04-23T02:32:33;97348.00;;;11.72;88.21
72525;BME280;60547;48.502;8.996;2023-04-23T02:34:58;97350.41;;;11.61;88.94
72525;BME280;60547;48.502;8.996;2023-04-23T02:37:26;97361.59;;;11.70;89.03
72525;BME280;60547;48.502;8.996;2023-04-23T02:39:52;97361.28;;;11.68;89.65
72525;BME280;60547;48.502;8.996;2023-04-23T02:42:17;97362.53;;;11.67;89.38
72525;BME280;60547;48.502;8.996;2023-04-23T02:44:43;97351.34;;;11.58;90.29
72525;BME280;60547;48.502;8.996;2023-04-23T02:47:08;97363.72;;;11.57;90.59
72525;BME280;60547;48.502;8.996;2023-04-23T02:49:34;97358.41;;;11.50;91.58
72525;BME280;60547;48.502;8.996;2023-04-23T02:51:59;97358.03;;;11.39;92.01
72525;BME280;60547;48.502;8.996;2023-04-23T02:54:25;97348.44;;;11.40;92.38
72525;BME280;60547;48.502;8.996;2023-04-23T02:56:50;97367.63;;;11.38;93.02
72525;BME280;60547;48.502;8.996;2023-04-23T02:59:16;97355.38;;;11.35;93.20
72525;BME280;60547;48.502;8.996;2023-04-23T03:01:41;97349.31;;;11.27;93.26
72525;BME280;60547;48.502;8.996;2023-04-23T03:04:07;97337.97;;;11.22;92.81
72525;BME280;60547;48.502;8.996;2023-04-23T03:06:32;97347.28;;;11.28;93.20
72525;BME280;60547;48.502;8.996;2023-04-23T03:09:00;97345.75;;;11.27;93.69
72525;BME280;60547;48.502;8.996;2023-04-23T03:11:25;97327.75;;;11.19;93.98
72525;BME280;60547;48.502;8.996;2023-04-23T03:13:51;97321.22;;;11.13;94.35
72525;BME280;60547;48.502;8.996;2023-04-23T03:16:16;97347.75;;;11.26;94.15
72525;BME280;60547;48.502;8.996;2023-04-23T03:18:42;97334.22;;;11.16;94.37
72525;BME280;60547;48.502;8.996;2023-04-23T03:21:07;97336.28;;;11.24;94.54
72525;BME280;60547;48.502;8.996;2023-04-23T03:23:33;97341.09;;;11.24;94.72
72525;BME280;60547;48.502;8.996;2023-04-23T03:25:59;97330.72;;;11.24;94.32
72525;BME280;60547;48.502;8.996;2023-04-23T03:28:24;97329.31;;;11.20;94.51
72525;BME280;60547;48.502;8.996;2023-04-23T03:30:50;97327.56;;;11.13;95.17
72525;BME280;60547;48.502;8.996;2023-04-23T03:33:16;97344.31;;;11.22;95.22
72525;BME280;60547;48.502;8.996;2023-04-23T03:35:41;97348.00;;;11.19;95.80
72525;BME280;60547;48.502;8.996;2023-04-23T03:38:07;97334.63;;;11.05;95.63
72525;BME280;60547;48.502;8.996;2023-04-23T03:40:32;97334.16;;;11.07;95.40
72525;BME280;60547;48.502;8.996;2023-04-23T03:42:58;97355.41;;;11.13;95.38
72525;BME280;60547;48.502;8.996;2023-04-23T03:45:24;97339.41;;;11.05;95.60
72525;BME280;60547;48.502;8.996;2023-04-23T03:47:50;97355.72;;;11.15;95.01
72525;BME280;60547;48.502;8.996;2023-04-23T03:50:15;97340.44;;;10.98;95.80
72525;BME280;60547;48.502;8.996;2023-04-23T03:52:42;97340.56;;;10.94;96.48
72525;BME280;60547;48.502;8.996;2023-04-23T03:55:08;97360.91;;;11.04;96.90
72525;BME280;60547;48.502;8.996;2023-04-23T03:57:34;97343.16;;;10.89;97.06
72525;BME280;60547;48.502;8.996;2023-04-23T04:00:00;97370.03;;;11.05;96.76
72525;BME280;60547;48.502;8.996;2023-04-23T04:02:26;97364.28;;;10.99;96.37
72525;BME280;60547;48.502;8.996;2023-04-23T04:04:52;97357.03;;;11.02;96.59
72525;BME280;60547;48.502;8.996;2023-04-23T04:07:19;97371.59;;;11.06;96.42
72525;BME280;60547;48.502;8.996;2023-04-23T04:09:44;97357.28;;;10.94;96.63
72525;BME280;60547;48.502;8.996;2023-04-23T04:12:11;97352.94;;;10.93;96.33
72525;BME280;60547;48.502;8.996;2023-04-23T04:14:37;97363.63;;;10.95;96.52
72525;BME280;60547;48.502;8.996;2023-04-23T04:17:02;97339.41;;;10.83;96.77
72525;BME280;60547;48.502;8.996;2023-04-23T04:19:27;97347.44;;;10.81;97.15
72525;BME280;60547;48.502;8.996;2023-04-23T04:21:53;97348.00;;;10.76;97.05
72525;BME280;60547;48.502;8.996;2023-04-23T04:24:18;97345.47;;;10.68;96.46
72525;BME280;60547;48.502;8.996;2023-04-23T04:26:45;97361.16;;;10.75;96.56
72525;BME280;60547;48.502;8.996;2023-04-23T04:29:11;97360.69;;;10.77;96.57
72525;BME280;60547;48.502;8.996;2023-04-23T04:31:37;97357.25;;;10.73;96.52
72525;BME280;60547;48.502;8.996;2023-04-23T04:34:03;97355.69;;;10.72;96.61
72525;BME280;60547;48.502;8.996;2023-04-23T04:36:29;97356.06;;;10.61;97.24
72525;BME280;60547;48.502;8.996;2023-04-23T04:38:54;97344.16;;;10.60;97.31
72525;BME280;60547;48.502;8.996;2023-04-23T04:41:22;97349.81;;;10.70;97.41
72525;BME280;60547;48.502;8.996;2023-04-23T04:43:50;97338.03;;;10.65;96.78
72525;BME280;60547;48.502;8.996;2023-04-23T04:46:17;97338.59;;;10.60;97.03
72525;BME280;60547;48.502;8.996;2023-04-23T04:48:46;97346.56;;;10.71;96.48
72525;BME280;60547;48.502;8.996;2023-04-23T04:51:11;97358.81;;;10.74;96.41
72525;BME280;60547;48.502;8.996;2023-04-23T04:53:37;97343.91;;;10.67;96.08
72525;BME280;60547;48.502;8.996;2023-04-23T04:56:03;97352.25;;;10.67;96.73
72525;BME280;60547;48.502;8.996;2023-04-23T04:58:28;97356.34;;;10.76;96.79
72525;BME280;60547;48.502;8.996;2023-04-23T05:00:54;97363.41;;;10.67;97.08
72525;BME280;60547;48.502;8.996;2023-04-23T05:03:20;97384.38;;;10.81;96.23
72525;BME280;60547;48.502;8.996;2023-04-23T05:05:46;97377.72;;;10.79;96.12
72525;BME280;60547;48.502;8.996;2023-04-23T05:08:13;97364.94;;;10.68;96.53
72525;BME280;60547;48.502;8.996;2023-04-23T05:10:41;97371.50;;;10.75;96.59
72525;BME280;60547;48.502;8.996;2023-04-23T05:13:06;97358.72;;;10.64;96.87
72525;BME280;60547;48.502;8.996;2023-04-23T05:15:32;97364.94;;;10.68;96.72
72525;BME280;60547;48.502;8.996;2023-04-23T05:17:57;97356.59;;;10.68;96.73
72525;BME280;60547;48.502;8.996;2023-04-23T05:20:23;97356.59;;;10.68;97.01
72525;BME280;60547;48.502;8.996;2023-04-23T05:22:48;97352.59;;;10.70;96.35
72525;BME280;60547;48.502;8.996;2023-04-23T05:25:14;97362.00;;;10.85;95.83
72525;BME280;60547;48.502;8.996;2023-04-23T05:27:40;97359.28;;;10.94;94.74
72525;BME280;60547;48.502;8.996;2023-04-23T05:30:07;97366.72;;;10.97;94.65
72525;BME280;60547;48.502;8.996;2023-04-23T05:32:34;97364.53;;;10.92;95.38
72525;BME280;60547;48.502;8.996;2023-04-23T05:35:00;97351.19;;;10.87;95.39
72525;BME280;60547;48.502;8.996;2023-04-23T05:37:27;97355.53;;;10.88;95.82
72525;BME280;60547;48.502;8.996;2023-04-23T05:39:53;97344.38;;;10.88;95.08
72525;BME280;60547;48.502;8.996;2023-04-23T05:42:18;97354.94;;;10.93;95.23
72525;BME280;60547;48.502;8.996;2023-04-23T05:44:45;97357.16;;;10.98;95.06
72525;BME280;60547;48.502;8.996;2023-04-23T05:47:12;97352.81;;;10.97;94.34
72525;BME280;60547;48.502;8.996;2023-04-23T05:49:38;97355.28;;;10.95;94.68
72525;BME280;60547;48.502;8.996;2023-04-23T05:52:03;97360.97;;;11.13;94.49
72525;BME280;60547;48.502;8.996;2023-04-23T05:54:29;97351.38;;;11.14;93.45
72525;BME280;60547;48.502;8.996;2023-04-23T05:56:55;97362.00;;;11.28;93.61
72525;BME280;60547;48.502;8.996;2023-04-23T05:59:20;97367.63;;;11.38;93.19
72525;BME280;60547;48.502;8.996;2023-04-23T06:01:47;97357.13;;;11.42;92.59
72525;BME280;60547;48.502;8.996;2023-04-23T06:04:13;97358.78;;;11.61;92.04
72525;BME280;60547;48.502;8.996;2023-04-23T06:06:39;97361.09;;;12.34;89.01
72525;BME280;60547;48.502;8.996;2023-04-23T06:09:04;97356.50;;;12.67;86.15
72525;BME280;60547;48.502;8.996;2023-04-23T06:11:31;97357.56;;;13.06;83.79
72525;BME280;60547;48.502;8.996;2023-04-23T06:13:57;97350.44;;;12.87;80.94
72525;BME280;60547;48.502;8.996;2023-04-23T06:16:23;97364.56;;;12.65;81.88
72525;BME280;60547;48.502;8.996;2023-04-23T06:18:49;97354.84;;;12.20;84.03
72525;BME280;60547;48.502;8.996;2023-04-23T06:21:15;97353.88;;;12.05;84.92
72525;BME280;60547;48.502;8.996;2023-04-23T06:23:40;97353.75;;;12.09;85.98
72525;BME280;60547;48.502;8.996;2023-04-23T06:26:06;97345.91;;;11.85;87.00
72525;BME280;60547;48.502;8.996;2023-04-23T06:28:31;97342.28;;;11.76;88.55
72525;BME280;60547;48.502;8.996;2023-04-23T06:30:57;97351.41;;;11.76;88.96
72525;BME280;60547;48.502;8.996;2023-04-23T06:33:22;97351.09;;;11.74;89.45
72525;BME280;60547;48.502;8.996;2023-04-23T06:35:48;97363.28;;;11.89;88.39
72525;BME280;60547;48.502;8.996;2023-04-23T06:38:13;97347.81;;;11.98;87.90
72525;BME280;60547;48.502;8.996;2023-04-23T06:40:39;97362.16;;;12.27;86.83
72525;BME280;60547;48.502;8.996;2023-04-23T06:43:04;97369.66;;;12.67;83.01
72525;BME280;60547;48.502;8.996;2023-04-23T06:45:32;97373.69;;;12.66;84.34
72525;BME280;60547;48.502;8.996;2023-04-23T06:47:59;97358.00;;;12.50;83.78
72525;BME280;60547;48.502;8.996;2023-04-23T06:50:25;97344.81;;;12.32;83.68
72525;BME280;60547;48.502;8.996;2023-04-23T06:52:51;97325.56;;;12.16;84.22
72525;BME280;60547;48.502;8.996;2023-04-23T06:55:17;97345.09;;;12.25;83.28
72525;BME280;60547;48.502;8.996;2023-04-23T06:57:43;97352.28;;;12.44;82.35
72525;BME280;60547;48.502;8.996;2023-04-23T07:00:09;97324.53;;;12.50;81.33
72525;BME280;60547;48.502;8.996;2023-04-23T07:02:35;97333.38;;;12.76;81.08
72525;BME280;60547;48.502;8.996;2023-04-23T07:05:01;97345.63;;;13.06;80.07
72525;BME280;60547;48.502;8.996;2023-04-23T07:07:26;97335.56;;;13.17;77.63
72525;BME280;60547;48.502;8.996;2023-04-23T07:09:52;97347.91;;;13.53;77.32
72525;BME280;60547;48.502;8.996;2023-04-23T07:12:18;97351.66;;;13.41;76.38
72525;BME280;60547;48.502;8.996;2023-04-23T07:14:43;97338.41;;;13.60;76.48
72525;BME280;60547;48.502;8.996;2023-04-23T07:17:09;97332.03;;;13.59;75.72
72525;BME280;60547;48.502;8.996;2023-04-23T07:19:36;97337.91;;;13.70;73.33
72525;BME280;60547;48.502;8.996;2023-04-23T07:22:01;97322.63;;;13.80;73.58
72525;BME280;60547;48.502;8.996;2023-04-23T07:24:27;97329.75;;;13.90;74.50
72525;BME280;60547;48.502;8.996;2023-04-23T07:26:53;97324.94;;;13.91;72.64
72525;BME280;60547;48.502;8.996;2023-04-23T07:29:18;97317.13;;;13.95;72.13
72525;BME280;60547;48.502;8.996;2023-04-23T07:31:44;97330.44;;;14.09;71.68
72525;BME280;60547;48.502;8.996;2023-04-23T07:34:10;97311.06;;;13.97;72.05
72525;BME280;60547;48.502;8.996;2023-04-23T07:36:36;97322.16;;;14.15;72.21
72525;BME280;60547;48.502;8.996;2023-04-23T07:39:02;97314.91;;;14.32;70.33
72525;BME280;60547;48.502;8.996;2023-04-23T07:41:29;97307.25;;;14.42;69.17
72525;BME280;60547;48.502;8.996;2023-04-23T07:43:55;97299.41;;;13.98;68.70
72525;BME280;60547;48.502;8.996;2023-04-23T07:46:20;97297.38;;;13.99;68.50
72525;BME280;60547;48.502;8.996;2023-04-23T07:48:46;97296.31;;;14.20;67.32
72525;BME280;60547;48.502;8.996;2023-04-23T07:51:11;97305.97;;;14.19;65.56
72525;BME280;60547;48.502;8.996;2023-04-23T07:53:37;97307.94;;;14.28;65.74
72525;BME280;60547;48.502;8.996;2023-04-23T07:56:02;97310.31;;;14.20;65.91
72525;BME280;60547;48.502;8.996;2023-04-23T07:58:28;97316.22;;;14.22;66.95
72525;BME280;60547;48.502;8.996;2023-04-23T08:00:53;97309.59;;;14.34;65.81
72525;BME280;60547;48.502;8.996;2023-04-23T08:03:19;97315.63;;;14.18;68.73
72525;BME280;60547;48.502;8.996;2023-04-23T08:05:44;97316.81;;;14.26;68.08
72525;BME280;60547;48.502;8.996;2023-04-23T08:08:11;97302.28;;;14.13;67.96
72525;BME280;60547;48.502;8.996;2023-04-23T08:10:37;97300.06;;;14.17;68.47
72525;BME280;60547;48.502;8.996;2023-04-23T08:13:02;97301.88;;;14.29;66.73
72525;BME280;60547;48.502;8.996;2023-04-23T08:15:28;97299.94;;;14.44;67.99
72525;BME280;60547;48.502;8.996;2023-04-23T08:17:54;97294.66;;;14.37;66.84
72525;BME280;60547;48.502;8.996;2023-04-23T08:20:19;97297.34;;;14.56;66.48
72525;BME280;60547;48.502;8.996;2023-04-23T08:22:45;97286.75;;;14.36;66.50
72525;BME280;60547;48.502;8.996;2023-04-23T08:25:10;97284.38;;;14.43;67.07
72525;BME280;60547;48.502;8.996;2023-04-23T08:27:37;97291.75;;;14.56;67.09
72525;BME280;60547;48.502;8.996;2023-04-23T08:30:03;97280.66;;;14.61;65.70
72525;BME280;60547;48.502;8.996;2023-04-23T08:32:29;97283.41;;;14.85;65.17
72525;BME280;60547;48.502;8.996;2023-04-23T08:34:55;97278.63;;;15.00;64.98
72525;BME280;60547;48.502;8.996;2023-04-23T08:37:20;97265.66;;;15.17;64.35
72525;BME280;60547;48.502;8.996;2023-04-23T08:39:46;97266.34;;;15.27;63.25
72525;BME280;60547;48.502;8.996;2023-04-23T08:42:22;97264.50;;;15.39;62.33
72525;BME280;60547;48.502;8.996;2023-04-23T08:44:50;97255.13;;;15.42;64.81
72525;BME280;60547;48.502;8.996;2023-04-23T08:47:17;97266.03;;;15.40;61.16
72525;BME280;60547;48.502;8.996;2023-04-23T08:49:44;97266.44;;;15.47;61.44
72525;BME280;60547;48.502;8.996;2023-04-23T08:52:18;97265.66;;;15.32;60.37
72525;BME280;60547;48.502;8.996;2023-04-23T08:54:51;97261.72;;;15.09;61.51
72525;BME280;60547;48.502;8.996;2023-04-23T08:57:18;97261.03;;;15.14;62.50
72525;BME280;60547;48.502;8.996;2023-04-23T08:59:44;97260.84;;;15.33;61.82
72525;BME280;60547;48.502;8.996;2023-04-23T09:02:12;97257.44;;;15.43;62.28
72525;BME280;60547;48.502;8.996;2023-04-23T09:04:38;97246.44;;;15.10;62.11
72525;BME280;60547;48.502;8.996;2023-04-23T09:07:05;97241.88;;;15.42;62.51
72525;BME280;60547;48.502;8.996;2023-04-23T09:09:36;97220.22;;;15.43;62.98
72525;BME280;60547;48.502;8.996;2023-04-23T09:12:06;97238.28;;;15.71;61.57
72525;BME280;60547;48.502;8.996;2023-04-23T09:14:33;97233.63;;;15.68;60.68
72525;BME280;60547;48.502;8.996;2023-04-23T09:16:58;97216.91;;;15.59;62.70
72525;BME280;60547;48.502;8.996;2023-04-23T09:19:27;97224.59;;;15.79;58.88
72525;BME280;60547;48.502;8.996;2023-04-23T09:21:53;97220.75;;;15.76;60.69
72525;BME280;60547;48.502;8.996;2023-04-23T09:24:23;97235.91;;;15.85;60.57
72525;BME280;60547;48.502;8.996;2023-04-23T09:26:50;97238.38;;;15.97;58.60
72525;BME280;60547;48.502;8.996;2023-04-23T09:29:17;97231.16;;;15.91;57.21
72525;BME280;60547;48.502;8.996;2023-04-23T09:31:45;97225.06;;;15.57;61.34
72525;BME280;60547;48.502;8.996;2023-04-23T09:34:14;97224.84;;;15.61;59.92
72525;BME280;60547;48.502;8.996;2023-04-23T09:36:41;97222.50;;;15.74;59.95
72525;BME280;60547;48.502;8.996;2023-04-23T09:39:14;97227.13;;;15.77;61.54
72525;BME280;60547;48.502;8.996;2023-04-23T09:41:39;97221.13;;;15.84;61.02
72525;BME280;60547;48.502;8.996;2023-04-23T09:44:05;97207.78;;;15.79;58.13
72525;BME280;60547;48.502;8.996;2023-04-23T09:46:37;97197.63;;;16.02;59.03
72525;BME280;60547;48.502;8.996;2023-04-23T09:49:04;97191.53;;;16.24;58.88
72525;BME280;60547;48.502;8.996;2023-04-23T09:51:49;97197.13;;;16.44;57.40
72525;BME280;60547;48.502;8.996;2023-04-23T09:54:17;97195.94;;;16.10;57.12
72525;BME280;60547;48.502;8.996;2023-04-23T09:56:52;97186.94;;;16.46;58.27
72525;BME280;60547;48.502;8.996;2023-04-23T09:59:27;97184.00;;;16.82;56.21
72525;BME280;60547;48.502;8.996;2023-04-23T10:01:54;97182.50;;;17.12;57.72
72525;BME280;60547;48.502;8.996;2023-04-23T10:04:22;97184.66;;;17.28;57.49
72525;BME280;60547;48.502;8.996;2023-04-23T10:06:59;97178.41;;;17.44;55.46
72525;BME280;60547;48.502;8.996;2023-04-23T10:09:26;97171.06;;;17.58;53.46
72525;BME280;60547;48.502;8.996;2023-04-23T10:11:56;97169.38;;;17.35;53.75
72525;BME280;60547;48.502;8.996;2023-04-23T10:14:23;97162.75;;;17.75;55.52
72525;BME280;60547;48.502;8.996;2023-04-23T10:16:51;97154.63;;;17.88;53.96
72525;BME280;60547;48.502;8.996;2023-04-23T10:19:21;97144.16;;;17.89;51.73
72525;BME280;60547;48.502;8.996;2023-04-23T10:21:53;97158.78;;;17.98;52.17
72525;BME280;60547;48.502;8.996;2023-04-23T10:24:25;97136.81;;;18.08;52.24
72525;BME280;60547;48.502;8.996;2023-04-23T10:27:02;97140.81;;;17.85;51.10
72525;BME280;60547;48.502;8.996;2023-04-23T10:29:33;97138.31;;;17.98;51.01
72525;BME280;60547;48.502;8.996;2023-04-23T10:32:03;97137.16;;;17.73;52.25
72525;BME280;60547;48.502;8.996;2023-04-23T10:34:30;97123.44;;;17.97;51.86
72525;BME280;60547;48.502;8.996;2023-04-23T10:36:58;97128.59;;;18.04;49.87
72525;BME280;60547;48.502;8.996;2023-04-23T10:39:26;97120.47;;;18.18;49.95
72525;BME280;60547;48.502;8.996;2023-04-23T10:41:53;97113.53;;;18.13;48.71
72525;BME280;60547;48.502;8.996;2023-04-23T10:44:19;97109.41;;;18.03;50.64
72525;BME280;60547;48.502;8.996;2023-04-23T10:46:56;97109.75;;;18.33;49.29
72525;BME280;60547;48.502;8.996;2023-04-23T10:49:23;97113.34;;;18.45;49.21
72525;BME280;60547;48.502;8.996;2023-04-23T10:51:58;97108.03;;;18.63;51.81
72525;BME280;60547;48.502;8.996;2023-04-23T10:54:28;97100.06;;;18.56;48.33
72525;BME280;60547;48.502;8.996;2023-04-23T10:57:04;97110.31;;;18.54;49.27
72525;BME280;60547;48.502;8.996;2023-04-23T10:59:32;97102.94;;;18.73;47.46
72525;BME280;60547;48.502;8.996;2023-04-23T11:02:05;97085.75;;;18.71;48.92
72525;BME280;60547;48.502;8.996;2023-04-23T11:04:32;97100.63;;;18.71;48.62
72525;BME280;60547;48.502;8.996;2023-04-23T11:07:08;97097.28;;;18.67;48.17
72525;BME280;60547;48.502;8.996;2023-04-23T11:09:40;97090.56;;;18.54;46.48
72525;BME280;60547;48.502;8.996;2023-04-23T11:12:12;97080.56;;;18.47;48.79
72525;BME280;60547;48.502;8.996;2023-04-23T11:17:11;97083.97;;;18.68;47.50
72525;BME280;60547;48.502;8.996;2023-04-23T11:19:38;97068.06;;;18.76;49.19
72525;BME280;60547;48.502;8.996;2023-04-23T11:22:05;97073.97;;;18.95;46.86
72525;BME280;60547;48.502;8.996;2023-04-23T11:24:36;97081.91;;;18.91;47.02
72525;BME280;60547;48.502;8.996;2023-04-23T11:27:06;97069.34;;;18.97;49.23
72525;BME280;60547;48.502;8.996;2023-04-23T11:29:31;97070.13;;;18.81;48.25
72525;BME280;60547;48.502;8.996;2023-04-23T11:31:58;97063.19;;;18.77;48.74
72525;BME280;60547;48.502;8.996;2023-04-23T11:34:23;97059.81;;;18.45;48.58
72525;BME280;60547;48.502;8.996;2023-04-23T11:36:52;97054.94;;;18.39;47.59
72525;BME280;60547;48.502;8.996;2023-04-23T11:39:19;97045.25;;;18.63;48.05
72525;BME280;60547;48.502;8.996;2023-04-23T11:41:44;97039.88;;;18.98;49.85
72525;BME280;60547;48.502;8.996;2023-04-23T11:44:14;97040.91;;;18.95;46.53
72525;BME280;60547;48.502;8.996;2023-04-23T11:46:40;97036.78;;;18.52;46.79
72525;BME280;60547;48.502;8.996;2023-04-23T11:49:05;97036.78;;;18.52;49.72
72525;BME280;60547;48.502;8.996;2023-04-23T11:51:33;97032.69;;;18.47;48.22
72525;BME280;60547;48.502;8.996;2023-04-23T11:54:02;97029.59;;;18.39;47.19
72525;BME280;60547;48.502;8.996;2023-04-23T11:56:32;97020.13;;;18.98;46.60
72525;BME280;60547;48.502;8.996;2023-04-23T11:58:59;97030.28;;;19.52;45.57
72525;BME280;60547;48.502;8.996;2023-04-23T12:01:38;97019.94;;;19.71;44.01
72525;BME280;60547;48.502;8.996;2023-04-23T12:04:08;97020.97;;;19.68;44.11
72525;BME280;60547;48.502;8.996;2023-04-23T12:06:34;97006.88;;;19.62;42.85
72525;BME280;60547;48.502;8.996;2023-04-23T12:09:00;97002.28;;;19.59;44.71
72525;BME280;60547;48.502;8.996;2023-04-23T12:11:26;96998.03;;;19.88;43.79
72525;BME280;60547;48.502;8.996;2023-04-23T12:13:51;96997.47;;;20.37;43.40
72525;BME280;60547;48.502;8.996;2023-04-23T12:16:33;96995.25;;;20.59;44.78
72525;BME280;60547;48.502;8.996;2023-04-23T12:18:59;96992.75;;;20.80;42.89
72525;BME280;60547;48.502;8.996;2023-04-23T12:21:25;96990.66;;;21.11;41.48
72525;BME280;60547;48.502;8.996;2023-04-23T12:23:53;96979.94;;;21.04;42.39
72525;BME280;60547;48.502;8.996;2023-04-23T12:26:18;96980.53;;;21.45;42.62
72525;BME280;60547;48.502;8.996;2023-04-23T12:28:54;96964.13;;;21.38;41.73
72525;BME280;60547;48.502;8.996;2023-04-23T12:31:25;96962.03;;;21.82;40.77
72525;BME280;60547;48.502;8.996;2023-04-23T12:34:04;96967.41;;;22.04;40.99
72525;BME280;60547;48.502;8.996;2023-04-23T12:36:31;96967.00;;;21.57;40.35
72525;BME280;60547;48.502;8.996;2023-04-23T12:39:26;96968.97;;;20.94;41.54
72525;BME280;60547;48.502;8.996;2023-04-23T12:44:25;96959.75;;;20.28;43.50
72525;BME280;60547;48.502;8.996;2023-04-23T12:46:58;96960.47;;;19.99;44.22
72525;BME280;60547;48.502;8.996;2023-04-23T12:49:25;96962.34;;;19.33;44.86
72525;BME280;60547;48.502;8.996;2023-04-23T12:51:52;96952.06;;;19.35;44.45
72525;BME280;60547;48.502;8.996;2023-04-23T12:54:22;96951.13;;;19.11;47.70
72525;BME280;60547;48.502;8.996;2023-04-23T12:56:47;96953.22;;;18.93;47.43
72525;BME280;60547;48.502;8.996;2023-04-23T12:59:13;96942.22;;;18.90;48.43
72525;BME280;60547;48.502;8.996;2023-04-23T13:01:38;96936.59;;;20.00;47.73
72525;BME280;60547;48.502;8.996;2023-04-23T13:04:04;96924.50;;;20.35;46.18